createdAt,value
2024-03-07T00:00:20.164Z,100.00
2024-03-07T00:02:50.818Z,100.00
2024-03-07T00:05:20.613Z,100.00
2024-03-07T00:07:50.524Z,100.00
2024-03-07T00:10:18.847Z,100.00
2024-03-07T00:12:47.131Z,100.00
2024-03-07T00:15:16.517Z,100.00
2024-03-07T00:17:45.064Z,100.00
2024-03-07T00:20:17.144Z,100.00
2024-03-07T00:22:45.835Z,100.00
2024-03-07T00:25:15.818Z,100.00
2024-03-07T00:27:46.336Z,100.00
2024-03-07T00:30:19.651Z,100.00
2024-03-07T00:32:48.714Z,100.00
2024-03-07T00:35:16.944Z,100.00
2024-03-07T00:37:45.591Z,100.00
2024-03-07T00:40:15.284Z,100.00
2024-03-07T00:42:43.479Z,100.00
2024-03-07T00:45:11.517Z,100.00
2024-03-07T00:47:39.794Z,100.00
2024-03-07T00:50:09.696Z,100.00
2024-03-07T00:52:38.013Z,100.00
2024-03-07T00:55:09.533Z,100.00
2024-03-07T00:57:39.391Z,100.00
2024-03-07T01:00:12.952Z,100.00
2024-03-07T01:02:44.480Z,100.00
2024-03-07T01:05:14.581Z,100.00
2024-03-07T01:07:43.971Z,100.00
2024-03-07T01:10:13.022Z,100.00
2024-03-07T01:12:44.420Z,100.00
2024-03-07T01:15:13.024Z,100.00
2024-03-07T01:17:41.264Z,100.00
2024-03-07T01:20:10.585Z,100.00
2024-03-07T01:22:38.483Z,100.00
2024-03-07T01:25:07.587Z,100.00
2024-03-07T01:27:36.077Z,100.00
2024-03-07T01:30:09.044Z,100.00
2024-03-07T01:32:37.155Z,100.00
2024-03-07T01:35:07.822Z,100.00
2024-03-07T01:37:35.693Z,100.00
2024-03-07T01:40:04.366Z,100.00
2024-03-07T01:42:32.227Z,100.00
2024-03-07T01:45:00.450Z,100.00
2024-03-07T01:47:29.870Z,100.00
2024-03-07T01:49:58.361Z,100.00
2024-03-07T01:52:26.711Z,100.00
2024-03-07T01:54:55.772Z,100.00
2024-03-07T01:57:23.976Z,100.00
2024-03-07T01:59:52.433Z,100.00
2024-03-07T02:02:20.663Z,100.00
2024-03-07T02:04:50.529Z,100.00
2024-03-07T02:07:18.416Z,100.00
2024-03-07T02:09:46.317Z,100.00
2024-03-07T02:12:14.455Z,100.00
2024-03-07T02:14:43.475Z,100.00
2024-03-07T02:17:11.877Z,100.00
2024-03-07T02:19:39.690Z,100.00
2024-03-07T02:22:09.022Z,100.00
2024-03-07T02:24:36.840Z,100.00
2024-03-07T02:27:04.748Z,100.00
2024-03-07T02:29:32.784Z,100.00
2024-03-07T02:32:00.662Z,100.00
2024-03-07T02:34:28.574Z,100.00
2024-03-07T02:36:56.787Z,100.00
2024-03-07T02:39:26.595Z,100.00
2024-03-07T02:41:54.535Z,100.00
2024-03-07T02:44:22.491Z,100.00
2024-03-07T02:46:50.458Z,100.00
2024-03-07T02:49:18.356Z,100.00
2024-03-07T02:51:46.572Z,100.00
2024-03-07T02:54:14.408Z,100.00
2024-03-07T02:56:45.077Z,100.00
2024-03-07T02:59:13.122Z,100.00
2024-03-07T03:01:41.045Z,100.00
2024-03-07T03:04:09.022Z,100.00
2024-03-07T03:06:36.838Z,100.00
2024-03-07T03:09:06.339Z,100.00
2024-03-07T03:11:34.424Z,100.00
2024-03-07T03:14:04.925Z,100.00
2024-03-07T03:16:43.824Z,100.00
2024-03-07T03:19:16.172Z,100.00
2024-03-07T03:21:44.735Z,100.00
2024-03-07T03:24:12.782Z,100.00
2024-03-07T03:26:43.697Z,100.00
2024-03-07T03:29:15.490Z,100.00
2024-03-07T03:31:43.386Z,100.00
2024-03-07T03:34:11.763Z,100.00
2024-03-07T03:36:39.752Z,100.00
2024-03-07T03:39:08.853Z,100.00
2024-03-07T03:41:37.160Z,100.00
2024-03-07T03:44:07.361Z,100.00
2024-03-07T03:46:36.713Z,100.00
2024-03-07T03:49:06.378Z,100.00
2024-03-07T03:51:34.736Z,100.00
2024-03-07T03:54:02.764Z,100.00
2024-03-07T03:56:30.782Z,100.00
2024-03-07T03:58:59.006Z,100.00
2024-03-07T04:01:27.385Z,100.00
2024-03-07T04:03:56.678Z,100.00
2024-03-07T04:06:25.056Z,100.00
2024-03-07T04:08:55.444Z,100.00
2024-03-07T04:11:23.464Z,100.00
2024-03-07T04:13:51.455Z,100.00
2024-03-07T04:16:20.043Z,100.00
2024-03-07T04:18:48.021Z,100.00
2024-03-07T04:21:17.289Z,100.00
2024-03-07T04:23:47.794Z,100.00
2024-03-07T04:26:16.244Z,100.00
2024-03-07T04:28:44.777Z,100.00
2024-03-07T04:31:12.657Z,100.00
2024-03-07T04:33:41.063Z,100.00
2024-03-07T04:36:10.039Z,100.00
2024-03-07T04:38:39.347Z,100.00
2024-03-07T04:41:07.241Z,100.00
2024-03-07T04:43:35.084Z,100.00
2024-03-07T04:46:02.983Z,100.00
2024-03-07T04:48:30.822Z,100.00
2024-03-07T04:50:59.549Z,100.00
2024-03-07T04:53:27.495Z,100.00
2024-03-07T04:55:57.090Z,100.00
2024-03-07T04:58:25.218Z,100.00
2024-03-07T05:00:53.210Z,100.00
2024-03-07T05:03:21.018Z,100.00
2024-03-07T05:05:49.137Z,100.00
2024-03-07T05:08:17.499Z,100.00
2024-03-07T05:10:45.842Z,100.00
2024-03-07T05:13:15.753Z,100.00
2024-03-07T05:15:43.683Z,100.00
2024-03-07T05:18:13.791Z,100.00
2024-03-07T05:20:41.934Z,100.00
2024-03-07T05:23:12.295Z,100.00
2024-03-07T05:25:41.377Z,100.00
2024-03-07T05:28:10.141Z,100.00
2024-03-07T05:30:39.799Z,100.00
2024-03-07T05:33:08.317Z,100.00
2024-03-07T05:35:36.340Z,100.00
2024-03-07T05:38:05.957Z,100.00
2024-03-07T05:40:34.679Z,100.00
2024-03-07T05:43:02.513Z,100.00
2024-03-07T05:45:30.451Z,100.00
2024-03-07T05:47:59.807Z,100.00
2024-03-07T05:50:28.084Z,100.00
2024-03-07T05:52:55.923Z,100.00
2024-03-07T05:55:24.655Z,100.00
2024-03-07T05:57:53.394Z,100.00
2024-03-07T06:00:29.073Z,100.00
2024-03-07T06:02:59.688Z,100.00
2024-03-07T06:05:28.069Z,100.00
2024-03-07T06:07:57.662Z,100.00
2024-03-07T06:10:26.422Z,100.00
2024-03-07T06:13:05.400Z,100.00
2024-03-07T06:15:39.333Z,100.00
2024-03-07T06:18:09.414Z,100.00
2024-03-07T06:20:37.508Z,100.00
2024-03-07T06:23:06.481Z,100.00
2024-03-07T06:25:38.799Z,100.00
2024-03-07T06:28:12.200Z,100.00
2024-03-07T06:30:42.872Z,100.00
2024-03-07T06:33:12.376Z,100.00
2024-03-07T06:35:41.018Z,100.00
2024-03-07T06:38:10.247Z,100.00
2024-03-07T06:40:38.284Z,100.00
2024-03-07T06:43:07.708Z,100.00
2024-03-07T06:45:36.899Z,100.00
2024-03-07T06:48:08.439Z,100.00
2024-03-07T06:50:39.475Z,100.00
2024-03-07T06:53:09.627Z,100.00
2024-03-07T06:55:38.313Z,100.00
2024-03-07T06:58:06.944Z,100.00
2024-03-07T07:00:38.114Z,100.00
2024-03-07T07:03:07.408Z,100.00
2024-03-07T07:05:36.299Z,100.00
2024-03-07T07:08:08.008Z,100.00
2024-03-07T07:10:37.390Z,100.00
2024-03-07T07:13:06.021Z,100.00
2024-03-07T07:15:35.994Z,100.00
2024-03-07T07:18:05.351Z,100.00
2024-03-07T07:20:35.616Z,100.00
2024-03-07T07:23:05.684Z,100.00
2024-03-07T07:25:34.112Z,100.00
2024-03-07T07:28:05.292Z,100.00
2024-03-07T07:30:33.353Z,100.00
2024-03-07T07:33:01.359Z,100.00
2024-03-07T07:35:29.434Z,100.00
2024-03-07T07:37:57.743Z,100.00
2024-03-07T07:40:28.800Z,100.00
2024-03-07T07:42:57.753Z,100.00
2024-03-07T07:45:26.818Z,100.00
2024-03-07T07:47:55.944Z,100.00
2024-03-07T07:50:26.456Z,100.00
2024-03-07T07:52:56.326Z,100.00
2024-03-07T07:55:25.591Z,100.00
2024-03-07T07:57:56.085Z,100.00
2024-03-07T08:00:26.077Z,100.00
2024-03-07T08:02:56.238Z,100.00
2024-03-07T08:05:25.813Z,100.00
2024-03-07T08:07:55.687Z,100.00
2024-03-07T08:10:25.588Z,100.00
2024-03-07T08:12:54.867Z,100.00
2024-03-07T08:15:22.938Z,100.00
2024-03-07T08:17:52.715Z,100.00
2024-03-07T08:20:23.669Z,100.00
2024-03-07T08:22:53.780Z,100.00
2024-03-07T08:25:24.338Z,100.00
2024-03-07T08:27:56.048Z,100.00
2024-03-07T08:30:25.102Z,100.00
2024-03-07T08:32:54.330Z,100.00
2024-03-07T08:35:23.461Z,100.00
2024-03-07T08:37:54.596Z,100.00
2024-03-07T08:40:28.196Z,100.00
2024-03-07T08:42:59.156Z,100.00
2024-03-07T08:45:28.231Z,100.00
2024-03-07T08:47:58.177Z,100.00
2024-03-07T08:50:28.074Z,100.00
2024-03-07T08:52:56.333Z,100.00
2024-03-07T08:55:26.620Z,100.00
2024-03-07T08:57:55.263Z,100.00
2024-03-07T09:00:26.511Z,100.00
2024-03-07T09:02:59.149Z,100.00
2024-03-07T09:05:28.676Z,100.00
2024-03-07T09:07:57.515Z,100.00
2024-03-07T09:10:27.292Z,100.00
2024-03-07T09:12:56.225Z,100.00
2024-03-07T09:15:25.662Z,100.00
2024-03-07T09:17:54.914Z,100.00
2024-03-07T09:20:24.856Z,99.46
2024-03-07T09:22:55.937Z,99.45
2024-03-07T09:25:25.478Z,100.00
2024-03-07T09:27:54.290Z,99.82
2024-03-07T09:30:27.058Z,100.00
2024-03-07T09:32:57.453Z,100.00
2024-03-07T09:35:25.775Z,100.00
2024-03-07T09:37:55.040Z,100.00
2024-03-07T09:40:26.280Z,100.00
2024-03-07T09:42:56.195Z,100.00
2024-03-07T09:45:30.419Z,99.02
2024-03-07T09:48:00.187Z,98.78
2024-03-07T09:50:31.241Z,99.41
2024-03-07T09:53:01.754Z,100.00
2024-03-07T09:55:30.456Z,99.95
2024-03-07T09:58:01.175Z,99.13
2024-03-07T10:00:31.846Z,100.00
2024-03-07T10:03:07.705Z,99.71
2024-03-07T10:05:35.939Z,100.00
2024-03-07T10:08:04.510Z,100.00
2024-03-07T10:10:32.766Z,100.00
2024-03-07T10:13:02.280Z,100.00
2024-03-07T10:15:30.954Z,100.00
2024-03-07T10:17:59.976Z,100.00
2024-03-07T10:20:29.659Z,100.00
2024-03-07T10:22:58.493Z,100.00
2024-03-07T10:25:30.022Z,100.00
2024-03-07T10:28:00.005Z,100.00
2024-03-07T10:30:28.835Z,100.00
2024-03-07T10:32:59.839Z,100.00
2024-03-07T10:35:32.610Z,100.00
2024-03-07T10:38:02.800Z,100.00
2024-03-07T10:40:32.122Z,100.00
2024-03-07T10:43:04.728Z,100.00
2024-03-07T10:45:36.198Z,100.00
2024-03-07T10:48:10.186Z,100.00
2024-03-07T10:50:50.261Z,100.00
2024-03-07T10:53:28.055Z,100.00
2024-03-07T10:56:14.790Z,100.00
2024-03-07T10:58:54.697Z,100.00
2024-03-07T11:01:25.194Z,100.00
2024-03-07T11:03:57.204Z,100.00
2024-03-07T11:06:27.605Z,100.00
2024-03-07T11:08:56.674Z,100.00
2024-03-07T11:11:26.037Z,100.00
2024-03-07T11:13:55.567Z,100.00
2024-03-07T11:16:25.100Z,100.00
2024-03-07T11:19:28.921Z,100.00
2024-03-07T11:21:58.808Z,100.00
2024-03-07T11:24:33.487Z,100.00
2024-03-07T11:27:06.840Z,100.00
2024-03-07T11:29:45.366Z,100.00
2024-03-07T11:32:14.937Z,100.00
2024-03-07T11:34:43.911Z,100.00
2024-03-07T11:37:19.716Z,100.00
2024-03-07T11:39:49.016Z,100.00
2024-03-07T11:42:27.971Z,100.00
2024-03-07T11:44:57.638Z,100.00
2024-03-07T11:47:26.694Z,100.00
2024-03-07T11:49:54.830Z,100.00
2024-03-07T11:52:24.196Z,100.00
2024-03-07T11:54:53.943Z,100.00
2024-03-07T11:57:27.664Z,100.00
2024-03-07T11:59:54.817Z,100.00
2024-03-07T12:02:23.927Z,100.00
2024-03-07T12:04:52.764Z,100.00
2024-03-07T12:07:23.744Z,100.00
2024-03-07T12:09:56.954Z,100.00
2024-03-07T12:12:25.753Z,100.00
2024-03-07T12:14:54.028Z,98.00
2024-03-07T12:17:23.964Z,98.92
2024-03-07T12:19:53.357Z,97.89
2024-03-07T12:22:25.778Z,97.21
2024-03-07T12:25:04.474Z,96.99
2024-03-07T12:27:33.162Z,97.54
2024-03-07T12:30:03.316Z,96.48
2024-03-07T12:32:32.691Z,93.89
2024-03-07T12:35:00.897Z,93.17
2024-03-07T12:37:31.376Z,94.12
2024-03-07T12:40:02.470Z,95.17
2024-03-07T12:42:33.470Z,91.94
2024-03-07T12:45:01.637Z,91.75
2024-03-07T12:47:29.815Z,90.34
2024-03-07T12:49:59.554Z,91.44
2024-03-07T12:52:28.516Z,92.49
2024-03-07T12:54:56.737Z,88.91
2024-03-07T12:57:25.514Z,87.15
2024-03-07T12:59:56.394Z,86.71
2024-03-07T13:02:28.959Z,87.67
2024-03-07T13:04:57.611Z,86.26
2024-03-07T13:07:25.410Z,82.79
2024-03-07T13:09:53.237Z,83.17
2024-03-07T13:12:21.181Z,83.03
2024-03-07T13:14:49.130Z,81.64
2024-03-07T13:17:19.591Z,81.09
2024-03-07T13:19:50.886Z,80.21
2024-03-07T13:22:18.789Z,83.06
2024-03-07T13:24:46.941Z,84.49
2024-03-07T13:27:20.387Z,83.68
2024-03-07T13:29:50.727Z,84.10
2024-03-07T13:32:20.072Z,83.74
2024-03-07T13:34:49.014Z,85.37
2024-03-07T13:37:19.331Z,84.84
2024-03-07T13:39:48.207Z,84.14
2024-03-07T13:42:17.799Z,86.10
2024-03-07T13:44:46.381Z,86.02
2024-03-07T13:47:14.293Z,86.91
2024-03-07T13:49:44.123Z,86.42
2024-03-07T13:52:19.532Z,86.63
2024-03-07T13:54:47.561Z,85.91
2024-03-07T13:57:31.099Z,84.45
2024-03-07T14:00:15.744Z,84.89
2024-03-07T14:03:28.570Z,82.56
2024-03-07T14:06:07.816Z,82.86
2024-03-07T14:09:09.145Z,81.95
2024-03-07T14:12:16.532Z,83.88
2024-03-07T14:15:27.184Z,85.99
2024-03-07T14:18:24.199Z,87.54
2024-03-07T14:21:12.270Z,86.23
2024-03-07T14:24:02.089Z,85.19
2024-03-07T14:27:20.599Z,86.99
2024-03-07T14:29:57.318Z,87.33
2024-03-07T14:32:26.698Z,87.24
2024-03-07T14:35:02.806Z,87.47
2024-03-07T14:37:39.288Z,88.01
2024-03-07T14:40:12.235Z,87.95
2024-03-07T14:42:46.268Z,88.43
2024-03-07T14:45:21.613Z,88.75
2024-03-07T14:47:52.090Z,88.03
2024-03-07T14:50:21.635Z,88.03
2024-03-07T14:52:53.275Z,86.78
2024-03-07T14:55:21.504Z,86.02
2024-03-07T14:57:49.584Z,83.81
2024-03-07T15:00:29.593Z,83.73
2024-03-07T15:03:03.724Z,82.59
2024-03-07T15:05:31.908Z,82.74
2024-03-07T15:08:01.448Z,82.77
2024-03-07T15:10:34.189Z,81.14
2024-03-07T15:13:03.903Z,81.87
2024-03-07T15:15:33.028Z,80.43
2024-03-07T15:18:01.573Z,79.68
2024-03-07T15:20:31.162Z,78.78
2024-03-07T15:23:01.804Z,79.19
2024-03-07T15:25:29.931Z,77.88
2024-03-07T15:27:59.219Z,76.77
2024-03-07T15:30:33.097Z,76.25
2024-03-07T15:33:01.870Z,76.33
2024-03-07T15:35:31.895Z,78.86
2024-03-07T15:38:01.246Z,80.43
2024-03-07T15:40:29.700Z,80.72
2024-03-07T15:42:59.188Z,81.00
2024-03-07T15:45:27.534Z,81.25
2024-03-07T15:47:57.469Z,81.25
2024-03-07T15:50:30.206Z,80.51
2024-03-07T15:53:00.094Z,80.01
2024-03-07T15:55:30.331Z,78.01
2024-03-07T15:58:05.493Z,77.02
2024-03-07T16:00:35.396Z,75.15
2024-03-07T16:03:06.067Z,76.29
2024-03-07T16:05:35.340Z,76.90
2024-03-07T16:08:07.636Z,77.14
2024-03-07T16:10:38.432Z,77.52
2024-03-07T16:13:08.333Z,77.46
2024-03-07T16:15:41.592Z,76.43
2024-03-07T16:18:13.240Z,76.39
2024-03-07T16:20:41.637Z,76.06
2024-03-07T16:23:10.061Z,75.68
2024-03-07T16:25:39.922Z,75.29
2024-03-07T16:28:09.167Z,75.71
2024-03-07T16:30:38.307Z,75.99
2024-03-07T16:33:07.938Z,76.69
2024-03-07T16:35:36.007Z,76.31
2024-03-07T16:38:04.567Z,77.10
2024-03-07T16:40:32.552Z,77.78
2024-03-07T16:43:02.625Z,78.27
2024-03-07T16:45:32.829Z,79.06
2024-03-07T16:48:04.043Z,79.53
2024-03-07T16:50:33.809Z,78.95
2024-03-07T16:53:06.454Z,78.82
2024-03-07T16:55:36.229Z,79.06
2024-03-07T16:58:09.709Z,79.01
2024-03-07T17:00:41.279Z,79.81
2024-03-07T17:03:13.214Z,80.10
2024-03-07T17:05:45.438Z,80.42
2024-03-07T17:08:17.315Z,80.40
2024-03-07T17:10:47.157Z,80.91
2024-03-07T17:13:17.641Z,81.79
2024-03-07T17:15:46.661Z,82.03
2024-03-07T17:18:15.376Z,82.85
2024-03-07T17:20:45.079Z,83.55
2024-03-07T17:23:14.578Z,83.85
2024-03-07T17:25:42.436Z,84.47
2024-03-07T17:28:10.305Z,84.77
2024-03-07T17:30:40.134Z,85.15
2024-03-07T17:33:08.929Z,85.91
2024-03-07T17:35:41.784Z,85.90
2024-03-07T17:38:11.733Z,86.43
2024-03-07T17:40:41.372Z,86.90
2024-03-07T17:43:10.882Z,87.32
2024-03-07T17:45:41.088Z,87.52
2024-03-07T17:48:11.592Z,88.42
2024-03-07T17:50:39.935Z,88.88
2024-03-07T17:53:11.548Z,90.29
2024-03-07T17:55:45.217Z,90.04
2024-03-07T17:58:15.276Z,90.96
2024-03-07T18:00:47.246Z,91.68
2024-03-07T18:03:17.739Z,92.56
2024-03-07T18:05:52.647Z,93.04
2024-03-07T18:08:34.550Z,93.22
2024-03-07T18:11:14.404Z,93.90
2024-03-07T18:13:43.524Z,94.20
2024-03-07T18:16:15.838Z,94.08
2024-03-07T18:18:47.215Z,94.64
2024-03-07T18:21:16.524Z,94.97
2024-03-07T18:23:46.458Z,94.72
2024-03-07T18:26:15.399Z,95.33
2024-03-07T18:28:44.521Z,95.32
2024-03-07T18:31:20.886Z,95.54
2024-03-07T18:33:51.873Z,96.75
2024-03-07T18:36:22.845Z,96.73
2024-03-07T18:38:52.396Z,96.88
2024-03-07T18:41:21.452Z,97.65
2024-03-07T18:43:49.469Z,98.29
2024-03-07T18:46:18.766Z,98.57
2024-03-07T18:48:47.280Z,98.97
2024-03-07T18:51:23.179Z,98.69
2024-03-07T18:53:53.959Z,99.20
2024-03-07T18:56:24.437Z,99.92
2024-03-07T18:58:53.275Z,100.00
2024-03-07T19:01:29.991Z,100.00
2024-03-07T19:03:57.879Z,100.00
2024-03-07T19:06:27.718Z,100.00
2024-03-07T19:08:55.668Z,100.00
2024-03-07T19:11:23.632Z,100.00
2024-03-07T19:13:54.227Z,100.00
2024-03-07T19:16:25.072Z,100.00
2024-03-07T19:18:53.276Z,100.00
2024-03-07T19:21:21.903Z,100.00
2024-03-07T19:23:50.053Z,100.00
2024-03-07T19:26:20.912Z,100.00
2024-03-07T19:28:50.369Z,100.00
2024-03-07T19:31:18.795Z,100.00
2024-03-07T19:33:48.118Z,100.00
2024-03-07T19:36:16.708Z,100.00
2024-03-07T19:38:47.611Z,100.00
2024-03-07T19:41:16.145Z,100.00
2024-03-07T19:43:54.637Z,100.00
2024-03-07T19:46:24.168Z,100.00
2024-03-07T19:48:54.317Z,100.00
2024-03-07T19:51:25.987Z,100.00
2024-03-07T19:53:54.931Z,100.00
2024-03-07T19:56:23.369Z,100.00
2024-03-07T19:58:51.323Z,100.00
2024-03-07T20:01:22.190Z,100.00
2024-03-07T20:03:50.244Z,100.00
2024-03-07T20:06:19.704Z,100.00
2024-03-07T20:08:47.677Z,100.00
2024-03-07T20:11:16.512Z,100.00
2024-03-07T20:13:44.395Z,100.00
2024-03-07T20:16:14.458Z,100.00
2024-03-07T20:18:45.233Z,100.00
2024-03-07T20:21:13.291Z,100.00
2024-03-07T20:23:42.027Z,100.00
2024-03-07T20:26:10.182Z,100.00
2024-03-07T20:28:38.494Z,100.00
2024-03-07T20:31:08.947Z,100.00
2024-03-07T20:33:37.662Z,100.00
2024-03-07T20:36:09.766Z,100.00
2024-03-07T20:38:39.227Z,100.00
2024-03-07T20:41:07.852Z,100.00
2024-03-07T20:43:36.250Z,100.00
2024-03-07T20:46:06.961Z,100.00
2024-03-07T20:48:36.245Z,100.00
2024-03-07T20:51:07.545Z,100.00
2024-03-07T20:53:37.132Z,100.00
2024-03-07T20:56:08.099Z,100.00
2024-03-07T20:58:37.238Z,100.00
2024-03-07T21:01:05.740Z,100.00
2024-03-07T21:03:38.398Z,100.00
2024-03-07T21:06:07.181Z,100.00
2024-03-07T21:08:35.129Z,100.00
2024-03-07T21:11:05.820Z,100.00
2024-03-07T21:13:33.660Z,100.00
2024-03-07T21:16:01.648Z,100.00
2024-03-07T21:18:33.041Z,100.00
2024-03-07T21:21:02.140Z,100.00
2024-03-07T21:23:32.893Z,100.00
2024-03-07T21:26:00.819Z,100.00
2024-03-07T21:28:31.137Z,100.00
2024-03-07T21:31:00.453Z,100.00
2024-03-07T21:33:29.007Z,100.00
2024-03-07T21:35:56.912Z,100.00
2024-03-07T21:38:25.211Z,100.00
2024-03-07T21:40:53.391Z,100.00
2024-03-07T21:43:21.262Z,100.00
2024-03-07T21:45:51.291Z,100.00
2024-03-07T21:48:22.926Z,100.00
2024-03-07T21:50:50.944Z,100.00
2024-03-07T21:53:18.729Z,100.00
2024-03-07T21:55:46.661Z,100.00
2024-03-07T21:58:14.899Z,100.00
2024-03-07T22:00:42.812Z,100.00
2024-03-07T22:03:13.369Z,100.00
2024-03-07T22:05:43.457Z,100.00
2024-03-07T22:08:11.391Z,100.00
2024-03-07T22:10:38.982Z,100.00
2024-03-07T22:13:07.386Z,100.00
2024-03-07T22:15:35.606Z,100.00
2024-03-07T22:18:04.863Z,100.00
2024-03-07T22:20:34.498Z,100.00
2024-03-07T22:23:05.769Z,100.00
2024-03-07T22:25:34.466Z,100.00
2024-03-07T22:28:04.926Z,100.00
2024-03-07T22:30:33.312Z,100.00
2024-03-07T22:33:01.405Z,100.00
2024-03-07T22:35:29.881Z,100.00
2024-03-07T22:37:59.119Z,100.00
2024-03-07T22:40:28.479Z,100.00
2024-03-07T22:42:57.144Z,100.00
2024-03-07T22:45:25.096Z,100.00
2024-03-07T22:47:54.508Z,100.00
2024-03-07T22:50:29.044Z,100.00
2024-03-07T22:53:02.412Z,100.00
2024-03-07T22:55:31.580Z,100.00
2024-03-07T22:57:59.685Z,100.00
2024-03-07T23:00:29.456Z,100.00
2024-03-07T23:03:00.221Z,100.00
2024-03-07T23:05:30.229Z,100.00
2024-03-07T23:08:01.766Z,100.00
2024-03-07T23:10:30.151Z,100.00
2024-03-07T23:13:00.293Z,100.00
2024-03-07T23:15:29.104Z,100.00
2024-03-07T23:17:58.459Z,100.00
2024-03-07T23:20:28.378Z,100.00
2024-03-07T23:22:58.450Z,100.00
2024-03-07T23:25:28.701Z,100.00
2024-03-07T23:27:57.983Z,100.00
2024-03-07T23:30:28.018Z,100.00
2024-03-07T23:32:57.024Z,100.00
2024-03-07T23:35:25.584Z,100.00
2024-03-07T23:37:54.090Z,100.00
2024-03-07T23:40:22.271Z,100.00
2024-03-07T23:42:52.768Z,100.00
2024-03-07T23:45:22.589Z,100.00
2024-03-07T23:47:51.048Z,100.00
2024-03-07T23:50:20.590Z,100.00
2024-03-07T23:52:48.391Z,100.00
2024-03-07T23:55:18.140Z,100.00
2024-03-07T23:57:47.179Z,100.00
